createdAt,value
2022-09-19T00:01:32.055Z,100447.91
2022-09-19T00:04:03.285Z,100451.19
2022-09-19T00:06:36.481Z,100454.91
2022-09-19T00:09:05.705Z,100449.97
2022-09-19T00:11:32.808Z,100446.31
2022-09-19T00:14:00.650Z,100453.72
2022-09-19T00:16:33.084Z,100455.91
2022-09-19T00:19:02.628Z,100442.03
2022-09-19T00:21:31.990Z,100458.97
2022-09-19T00:24:17.601Z,100454.13
2022-09-19T00:26:46.249Z,100450.56
2022-09-19T00:29:15.769Z,100439.44
2022-09-19T00:31:44.170Z,100446.63
2022-09-19T00:34:12.762Z,100443.34
2022-09-19T00:36:39.693Z,100444.84
2022-09-19T00:39:07.766Z,100441.31
2022-09-19T00:41:34.966Z,100442.00
2022-09-19T00:44:21.695Z,100452.44
2022-09-19T00:47:06.273Z,100453.03
2022-09-19T00:49:38.704Z,100453.84
2022-09-19T00:52:11.247Z,100456.94
2022-09-19T00:54:43.221Z,100459.59
2022-09-19T00:57:13.108Z,100458.06
2022-09-19T00:59:44.856Z,100464.00
2022-09-19T01:02:11.496Z,100463.34
2022-09-19T01:04:38.080Z,100472.06
2022-09-19T01:07:14.621Z,100465.59
2022-09-19T01:09:50.826Z,100474.50
2022-09-19T01:12:32.639Z,100466.00
2022-09-19T01:15:20.792Z,100467.34
2022-09-19T01:18:00.209Z,100474.97
2022-09-19T01:20:48.058Z,100474.19
2022-09-19T01:23:37.277Z,100477.22
2022-09-19T01:26:23.881Z,100478.78
2022-09-19T01:29:03.185Z,100481.34
2022-09-19T01:31:32.167Z,100485.16
2022-09-19T01:34:10.958Z,100494.22
2022-09-19T01:37:01.165Z,100495.75
2022-09-19T01:39:30.418Z,100489.91
2022-09-19T01:41:59.967Z,100510.97
2022-09-19T01:44:28.718Z,100501.72
2022-09-19T01:46:58.321Z,100507.63
2022-09-19T01:49:37.033Z,100506.09
2022-09-19T01:52:17.301Z,100509.19
2022-09-19T01:54:55.052Z,100506.88
2022-09-19T01:57:41.763Z,100512.75
2022-09-19T02:00:15.617Z,100515.34
2022-09-19T02:03:05.789Z,100515.47
2022-09-19T02:05:37.994Z,100500.81
2022-09-19T02:08:24.928Z,100503.66
2022-09-19T02:11:01.322Z,100511.41
2022-09-19T02:13:31.852Z,100512.78
2022-09-19T02:16:08.203Z,100514.22
2022-09-19T02:18:50.106Z,100509.81
2022-09-19T02:21:22.390Z,100525.25
2022-09-19T02:23:53.601Z,100527.22
2022-09-19T02:26:22.412Z,100527.09
2022-09-19T02:28:55.669Z,100524.97
2022-09-19T02:31:28.393Z,100530.06
2022-09-19T02:33:59.882Z,100534.50
2022-09-19T02:36:41.353Z,100531.16
2022-09-19T02:39:31.864Z,100539.56
2022-09-19T02:41:58.756Z,100538.66
2022-09-19T02:44:33.048Z,100536.91
2022-09-19T02:47:16.686Z,100542.72
2022-09-19T02:49:53.949Z,100545.69
2022-09-19T02:52:31.950Z,100548.22
2022-09-19T02:55:13.023Z,100549.09
2022-09-19T02:57:46.352Z,100551.47
2022-09-19T03:00:14.888Z,100545.41
2022-09-19T03:02:46.914Z,100554.66
2022-09-19T03:05:20.611Z,100553.78
2022-09-19T03:07:53.792Z,100550.88
2022-09-19T03:10:24.564Z,100556.19
2022-09-19T03:13:02.038Z,100562.38
2022-09-19T03:15:37.438Z,100562.59
2022-09-19T03:18:10.492Z,100562.38
2022-09-19T03:20:38.228Z,100560.06
2022-09-19T03:23:09.849Z,100561.59
2022-09-19T03:25:36.805Z,100560.41
2022-09-19T03:28:03.613Z,100566.41
2022-09-19T03:30:30.095Z,100569.75
2022-09-19T03:32:56.606Z,100573.78
2022-09-19T03:35:23.217Z,100574.91
2022-09-19T03:37:51.726Z,100578.59
2022-09-19T03:40:18.224Z,100579.34
2022-09-19T03:42:46.745Z,100578.69
2022-09-19T03:45:13.257Z,100579.00
2022-09-19T03:47:39.823Z,100583.47
2022-09-19T03:50:07.428Z,100580.03
2022-09-19T03:52:34.931Z,100581.22
2022-09-19T03:55:01.475Z,100586.63
2022-09-19T03:57:27.993Z,100586.34
2022-09-19T03:59:54.445Z,100592.44
2022-09-19T04:02:21.143Z,100594.75
2022-09-19T04:04:48.409Z,100607.50
2022-09-19T04:07:16.715Z,100611.00
2022-09-19T04:09:43.216Z,100607.50
2022-09-19T04:12:09.755Z,100607.94
2022-09-19T04:14:36.522Z,100613.22
2022-09-19T04:17:21.336Z,100610.69
2022-09-19T04:19:51.269Z,100619.50
2022-09-19T04:22:19.927Z,100620.03
2022-09-19T04:24:46.679Z,100613.06
2022-09-19T04:27:17.541Z,100626.88
2022-09-19T04:29:46.754Z,100631.25
2022-09-19T04:32:15.739Z,100631.47
2022-09-19T04:34:44.124Z,100628.25
2022-09-19T04:37:11.545Z,100642.69
2022-09-19T04:39:38.482Z,100633.03
2022-09-19T04:42:05.181Z,100640.28
2022-09-19T04:44:31.660Z,100638.88
2022-09-19T04:46:58.682Z,100635.50
2022-09-19T04:49:35.561Z,100646.84
2022-09-19T04:52:03.049Z,100649.28
2022-09-19T04:54:30.943Z,100648.00
2022-09-19T04:56:57.390Z,100655.53
2022-09-19T04:59:23.857Z,100647.16
2022-09-19T05:01:51.576Z,100646.28
2022-09-19T05:04:19.092Z,100653.63
2022-09-19T05:06:45.561Z,100659.88
2022-09-19T05:09:12.789Z,100658.88
2022-09-19T05:11:43.381Z,100663.50
2022-09-19T05:14:10.583Z,100670.31
2022-09-19T05:16:37.211Z,100672.72
2022-09-19T05:19:03.898Z,100682.69
2022-09-19T05:21:30.374Z,100678.09
2022-09-19T05:23:56.886Z,100679.38
2022-09-19T05:26:23.868Z,100676.41
2022-09-19T05:28:50.390Z,100686.13
2022-09-19T05:31:19.302Z,100682.31
2022-09-19T05:33:46.815Z,100693.75
2022-09-19T05:36:13.854Z,100698.63
2022-09-19T05:38:41.424Z,100693.94
2022-09-19T05:41:08.780Z,100699.69
2022-09-19T05:43:35.262Z,100704.66
2022-09-19T05:46:02.270Z,100713.06
2022-09-19T05:48:31.182Z,100705.38
2022-09-19T05:50:57.753Z,100708.03
2022-09-19T05:53:42.836Z,100710.69
2022-09-19T05:56:10.572Z,100708.81
2022-09-19T05:58:37.705Z,100705.16
2022-09-19T06:01:09.353Z,100709.69
2022-09-19T06:03:35.996Z,100722.13
2022-09-19T06:06:10.056Z,100721.97
2022-09-19T06:08:36.573Z,100727.44
2022-09-19T06:11:03.120Z,100727.84
2022-09-19T06:13:49.559Z,100724.50
2022-09-19T06:16:16.822Z,100723.78
2022-09-19T06:18:46.961Z,100727.53
2022-09-19T06:21:13.752Z,100732.75
2022-09-19T06:23:43.985Z,100736.19
2022-09-19T06:26:12.541Z,100740.50
2022-09-19T06:28:39.617Z,100742.13
2022-09-19T06:31:07.233Z,100739.50
2022-09-19T06:33:33.955Z,100747.09
2022-09-19T06:36:01.443Z,100748.66
2022-09-19T06:38:28.695Z,100747.09
2022-09-19T06:40:55.214Z,100743.66
2022-09-19T06:43:22.837Z,100754.00
2022-09-19T06:45:49.740Z,100751.63
2022-09-19T06:48:16.489Z,100752.66
2022-09-19T06:50:47.257Z,100753.38
2022-09-19T06:53:14.499Z,100753.19
2022-09-19T06:55:45.151Z,100754.56
2022-09-19T06:58:14.999Z,100769.66
2022-09-19T07:00:44.459Z,100772.16
2022-09-19T07:03:16.893Z,100761.44
2022-09-19T07:05:45.299Z,100774.00
2022-09-19T07:08:14.710Z,100767.59
2022-09-19T07:10:43.236Z,100763.53
2022-09-19T07:13:15.722Z,100774.19
2022-09-19T07:15:42.374Z,100781.91
2022-09-19T07:18:11.279Z,100776.88
2022-09-19T07:20:38.602Z,100788.88
2022-09-19T07:23:12.502Z,100791.00
2022-09-19T07:25:40.164Z,100794.44
2022-09-19T07:28:09.525Z,100802.50
2022-09-19T07:30:36.770Z,100791.72
2022-09-19T07:33:05.921Z,100789.38
2022-09-19T07:35:36.241Z,100794.38
2022-09-19T07:38:04.960Z,100803.56
2022-09-19T07:40:34.331Z,100802.75
2022-09-19T07:43:02.907Z,100799.44
2022-09-19T07:45:34.780Z,100805.44
2022-09-19T07:48:02.373Z,100802.31
2022-09-19T07:50:29.427Z,100817.69
2022-09-19T07:53:05.460Z,100820.66
2022-09-19T07:55:32.855Z,100823.72
2022-09-19T07:58:00.758Z,100822.19
2022-09-19T08:00:29.002Z,100822.19
2022-09-19T08:03:05.892Z,100827.31
2022-09-19T08:05:35.318Z,100824.72
2022-09-19T08:08:02.285Z,100824.81
2022-09-19T08:10:28.817Z,100835.78
2022-09-19T08:13:03.490Z,100841.88
2022-09-19T08:15:31.137Z,100837.66
2022-09-19T08:17:59.757Z,100841.47
2022-09-19T08:20:27.861Z,100847.31
2022-09-19T08:22:59.179Z,100846.22
2022-09-19T08:25:27.191Z,100847.75
2022-09-19T08:27:56.694Z,100843.59
2022-09-19T08:30:28.135Z,100853.47
2022-09-19T08:32:56.550Z,100855.81
2022-09-19T08:35:24.593Z,100859.75
2022-09-19T08:37:55.861Z,100861.13
2022-09-19T08:40:53.347Z,100855.31
2022-09-19T08:43:41.511Z,100872.22
2022-09-19T08:46:15.426Z,100867.06
2022-09-19T08:48:57.723Z,100872.97
2022-09-19T08:51:53.865Z,100862.16
2022-09-19T08:54:45.579Z,100858.44
2022-09-19T08:57:27.059Z,100863.25
2022-09-19T08:59:59.220Z,100867.88
2022-09-19T09:03:00.069Z,100869.56
2022-09-19T09:05:39.686Z,100870.84
2022-09-19T09:08:09.202Z,100872.06
2022-09-19T09:10:54.578Z,100872.25
2022-09-19T09:13:59.409Z,100876.22
2022-09-19T09:16:45.976Z,100878.34
2022-09-19T09:19:44.906Z,100883.31
2022-09-19T09:22:27.034Z,100877.69
2022-09-19T09:25:17.535Z,100878.72
2022-09-19T09:27:57.725Z,100890.19
2022-09-19T09:30:24.259Z,100882.94
2022-09-19T09:33:08.289Z,100883.81
2022-09-19T09:35:40.331Z,100879.25
2022-09-19T09:38:31.026Z,100873.22
2022-09-19T09:41:26.717Z,100876.63
2022-09-19T09:43:56.842Z,100875.94
2022-09-19T09:46:36.667Z,100875.53
2022-09-19T09:49:11.833Z,100876.31
2022-09-19T09:51:58.540Z,100879.16
2022-09-19T09:55:26.045Z,100870.91
2022-09-19T09:58:07.748Z,100864.59
2022-09-19T10:00:59.140Z,100871.38
2022-09-19T10:03:43.722Z,100866.25
2022-09-19T10:06:16.563Z,100871.31
2022-09-19T10:09:11.979Z,100869.44
2022-09-19T10:14:37.068Z,100866.00
2022-09-19T10:17:07.030Z,100869.63
2022-09-19T10:19:45.564Z,100863.94
2022-09-19T10:22:15.793Z,100859.88
2022-09-19T10:24:57.813Z,100853.31
2022-09-19T10:27:39.371Z,100854.41
2022-09-19T10:30:26.198Z,100848.59
2022-09-19T10:32:53.794Z,100856.25
2022-09-19T10:35:32.564Z,100858.47
2022-09-19T10:38:01.878Z,100860.97
2022-09-19T10:40:30.533Z,100856.53
2022-09-19T10:42:58.478Z,100864.50
2022-09-19T10:45:28.872Z,100860.06
2022-09-19T10:48:18.813Z,100863.50
2022-09-19T10:50:48.939Z,100857.84
2022-09-19T10:53:27.301Z,100867.56
2022-09-19T10:55:54.870Z,100866.09
2022-09-19T10:58:27.693Z,100861.47
2022-09-19T11:01:21.649Z,100865.94
2022-09-19T11:04:07.027Z,100875.13
2022-09-19T11:06:34.762Z,100867.16
2022-09-19T11:09:06.965Z,100863.75
2022-09-19T11:11:47.227Z,100863.06
2022-09-19T11:14:33.913Z,100857.34
2022-09-19T11:17:21.501Z,100856.38
2022-09-19T11:19:58.824Z,100856.00
2022-09-19T11:23:11.424Z,100857.00
2022-09-19T11:25:47.532Z,100861.13
2022-09-19T11:28:34.596Z,100855.91
2022-09-19T11:37:55.038Z,100857.28
2022-09-19T11:40:33.666Z,100860.47
2022-09-19T11:43:50.717Z,100863.50
2022-09-19T11:46:34.116Z,100852.56
2022-09-19T11:49:37.907Z,100850.69
2022-09-19T11:52:24.240Z,100859.75
2022-09-19T11:55:22.333Z,100850.81
2022-09-19T11:58:28.913Z,100849.44
2022-09-19T12:01:30.778Z,100844.91
2022-09-19T12:04:15.247Z,100846.44
2022-09-19T12:07:02.987Z,100849.50
2022-09-19T12:09:46.202Z,100848.66
2022-09-19T12:12:16.558Z,100836.75
2022-09-19T12:14:59.231Z,100835.50
2022-09-19T12:17:43.915Z,100842.94
2022-09-19T12:20:31.168Z,100832.50
2022-09-19T12:23:26.201Z,100839.59
2022-09-19T12:25:56.214Z,100829.56
2022-09-19T12:28:24.986Z,100835.56
2022-09-19T12:31:00.495Z,100832.34
2022-09-19T12:33:56.739Z,100818.97
2022-09-19T12:36:52.429Z,100825.22
2022-09-19T12:39:38.327Z,100823.19
2022-09-19T12:42:10.309Z,100810.00
2022-09-19T12:44:45.421Z,100813.53
2022-09-19T12:47:16.958Z,100817.38
2022-09-19T12:50:09.432Z,100817.41
2022-09-19T12:52:47.133Z,100819.47
2022-09-19T12:55:21.976Z,100823.41
2022-09-19T12:57:54.023Z,100828.38
2022-09-19T13:00:22.218Z,100817.56
2022-09-19T13:02:54.937Z,100811.59
2022-09-19T13:05:37.912Z,100818.41
2022-09-19T13:08:06.780Z,100810.16
2022-09-19T13:10:39.037Z,100815.75
2022-09-19T13:13:12.576Z,100807.41
2022-09-19T13:15:52.941Z,100800.94
2022-09-19T13:18:39.701Z,100809.38
2022-09-19T13:21:27.218Z,100809.25
2022-09-19T13:23:58.456Z,100808.94
2022-09-19T13:26:36.351Z,100818.34
2022-09-19T13:29:29.571Z,100803.88
2022-09-19T13:32:08.238Z,100808.38
2022-09-19T13:34:42.954Z,100804.59
2022-09-19T13:37:27.957Z,100809.34
2022-09-19T13:40:16.901Z,100822.97
2022-09-19T13:43:10.918Z,100817.28
2022-09-19T13:45:50.161Z,100822.66
2022-09-19T13:48:30.455Z,100817.66
2022-09-19T13:51:04.964Z,100820.09
2022-09-19T13:53:37.428Z,100808.47
2022-09-19T13:56:19.945Z,100820.53
2022-09-19T13:58:46.480Z,100810.75
2022-09-19T14:01:13.510Z,100815.13
2022-09-19T14:03:43.683Z,100811.38
2022-09-19T14:06:31.542Z,100810.75
2022-09-19T14:10:01.311Z,100806.38
2022-09-19T14:12:54.229Z,100803.63
2022-09-19T14:15:29.910Z,100793.63
2022-09-19T14:18:11.666Z,100800.53
2022-09-19T14:20:55.785Z,100805.72
2022-09-19T14:23:43.297Z,100814.53
2022-09-19T14:26:13.546Z,100826.75
2022-09-19T14:28:52.414Z,100824.03
2022-09-19T14:31:52.408Z,100826.69
2022-09-19T14:34:52.240Z,100842.34
2022-09-19T14:37:49.564Z,100848.66
2022-09-19T14:40:39.793Z,100847.19
2022-09-19T14:43:27.956Z,100855.53
2022-09-19T14:46:11.391Z,100853.34
2022-09-19T14:48:50.479Z,100856.09
2022-09-19T14:51:39.932Z,100867.94
2022-09-19T14:54:23.318Z,100866.25
2022-09-19T14:57:04.780Z,100855.84
2022-09-19T14:59:36.437Z,100865.41
2022-09-19T15:02:27.402Z,100859.53
2022-09-19T15:05:04.331Z,100850.03
2022-09-19T15:07:34.041Z,100841.34
2022-09-19T15:10:01.618Z,100848.25
2022-09-19T15:12:35.431Z,100833.00
2022-09-19T15:15:04.960Z,100832.13
2022-09-19T15:17:33.557Z,100836.06
2022-09-19T15:20:13.225Z,100832.41
2022-09-19T15:22:52.612Z,100836.19
2022-09-19T15:25:36.459Z,100839.56
2022-09-19T15:28:22.195Z,100833.91
2022-09-19T15:30:53.753Z,100832.78
2022-09-19T15:33:20.531Z,100841.56
2022-09-19T15:35:49.573Z,100840.81
2022-09-19T15:38:32.375Z,100840.50
2022-09-19T15:41:01.379Z,100845.13
2022-09-19T15:43:30.041Z,100837.88
2022-09-19T15:45:59.146Z,100841.63
2022-09-19T15:48:32.194Z,100841.94
2022-09-19T15:51:03.390Z,100841.88
2022-09-19T15:53:40.241Z,100841.19
2022-09-19T15:56:14.145Z,100828.97
2022-09-19T15:58:52.972Z,100849.31
2022-09-19T16:01:33.796Z,100857.13
2022-09-19T16:04:03.941Z,100857.00
2022-09-19T16:06:56.677Z,100851.56
2022-09-19T16:09:52.278Z,100850.00
2022-09-19T16:12:39.854Z,100861.44
2022-09-19T16:15:15.449Z,100855.84
2022-09-19T16:18:08.528Z,100859.78
2022-09-19T16:20:34.990Z,100874.72
2022-09-19T16:23:06.165Z,100865.94
2022-09-19T16:25:57.298Z,100872.53
2022-09-19T16:28:37.781Z,100874.00
2022-09-19T16:31:19.543Z,100874.34
2022-09-19T16:33:55.528Z,100883.88
2022-09-19T16:36:22.970Z,100880.28
2022-09-19T16:38:59.133Z,100885.22
2022-09-19T16:41:27.512Z,100894.56
2022-09-19T16:44:21.690Z,100894.38
2022-09-19T16:46:50.588Z,100906.75
2022-09-19T16:49:17.088Z,100901.78
2022-09-19T16:51:43.609Z,100892.16
2022-09-19T16:54:17.451Z,100897.13
2022-09-19T16:56:44.173Z,100901.84
2022-09-19T16:59:20.688Z,100901.38
2022-09-19T17:01:50.910Z,100905.06
2022-09-19T17:04:19.922Z,100914.22
2022-09-19T17:06:47.110Z,100901.38
2022-09-19T17:09:15.911Z,100902.84
2022-09-19T17:11:42.498Z,100912.75
2022-09-19T17:14:17.258Z,100905.53
2022-09-19T17:16:44.397Z,100911.19
2022-09-19T17:19:10.952Z,100911.34
2022-09-19T17:21:37.445Z,100909.97
2022-09-19T17:24:04.115Z,100924.56
2022-09-19T17:26:30.576Z,100913.72
2022-09-19T17:28:57.247Z,100911.94
2022-09-19T17:31:25.080Z,100917.00
2022-09-19T17:33:51.603Z,100917.09
2022-09-19T17:36:19.007Z,100921.00
2022-09-19T17:38:45.539Z,100916.03
2022-09-19T17:41:16.783Z,100913.00
2022-09-19T17:43:46.559Z,100920.72
2022-09-19T17:46:15.403Z,100932.19
2022-09-19T17:48:42.305Z,100927.25
2022-09-19T17:51:15.047Z,100928.47
2022-09-19T17:53:42.820Z,100938.03
2022-09-19T17:56:14.802Z,100930.91
2022-09-19T17:58:42.314Z,100931.84
2022-09-19T18:01:28.170Z,100931.16
2022-09-19T18:03:55.687Z,100939.63
2022-09-19T18:06:22.371Z,100944.41
2022-09-19T18:08:48.916Z,100953.97
2022-09-19T18:11:15.373Z,100964.03
2022-09-19T18:13:46.962Z,100970.84
2022-09-19T18:16:15.641Z,100975.03
2022-09-19T18:18:44.029Z,100982.47
2022-09-19T18:21:11.068Z,100981.66
2022-09-19T18:23:38.996Z,100978.66
2022-09-19T18:26:06.823Z,100987.22
2022-09-19T18:28:35.233Z,100982.25
2022-09-19T18:31:09.311Z,100987.66
2022-09-19T18:33:36.418Z,100988.75
2022-09-19T18:36:09.464Z,100989.06
2022-09-19T18:38:37.598Z,100986.78
2022-09-19T18:41:05.368Z,100994.91
2022-09-19T18:43:32.766Z,100997.00
2022-09-19T18:46:08.380Z,100998.34
2022-09-19T18:48:35.522Z,100991.75
2022-09-19T18:51:07.521Z,100994.16
2022-09-19T18:53:34.040Z,100997.09
2022-09-19T18:56:00.715Z,100993.75
2022-09-19T18:58:27.234Z,100996.22
2022-09-19T19:01:04.288Z,100988.88
2022-09-19T19:03:31.663Z,101000.19
2022-09-19T19:06:01.387Z,101001.16
2022-09-19T19:08:27.917Z,101003.22
2022-09-19T19:10:54.422Z,101003.38
2022-09-19T19:13:20.877Z,100996.63
2022-09-19T19:15:47.390Z,100999.97
2022-09-19T19:18:13.896Z,100996.00
2022-09-19T19:20:40.397Z,100985.53
2022-09-19T19:23:07.136Z,100995.19
2022-09-19T19:25:33.753Z,100993.06
2022-09-19T19:28:00.450Z,100994.25
2022-09-19T19:30:27.037Z,100988.47
2022-09-19T19:32:55.169Z,100989.47
2022-09-19T19:35:21.657Z,100988.28
2022-09-19T19:37:48.249Z,100988.97
2022-09-19T19:40:14.940Z,100993.81
2022-09-19T19:42:41.470Z,100994.63
2022-09-19T19:45:08.082Z,100994.56
2022-09-19T19:47:34.594Z,100992.56
2022-09-19T19:50:01.067Z,100973.22
2022-09-19T19:52:27.615Z,100995.31
2022-09-19T19:54:54.166Z,100988.47
2022-09-19T19:57:20.890Z,100992.03
2022-09-19T19:59:47.351Z,100988.91
2022-09-19T20:02:14.650Z,101001.75
2022-09-19T20:04:41.249Z,101000.59
2022-09-19T20:07:07.848Z,100997.25
2022-09-19T20:09:34.373Z,100997.28
2022-09-19T20:12:02.085Z,101001.78
2022-09-19T20:14:28.597Z,100997.59
2022-09-19T20:16:55.113Z,100995.25
2022-09-19T20:19:21.627Z,100993.16
2022-09-19T20:21:48.656Z,100996.78
2022-09-19T20:24:19.456Z,100988.13
2022-09-19T20:26:47.460Z,100997.94
2022-09-19T20:29:17.304Z,100999.72
2022-09-19T20:31:43.864Z,101000.56
2022-09-19T20:34:11.158Z,100999.09
2022-09-19T20:36:39.270Z,101003.41
2022-09-19T20:39:06.736Z,101001.84
2022-09-19T20:41:37.473Z,100991.50
2022-09-19T20:44:06.630Z,100994.72
2022-09-19T20:46:34.995Z,100987.84
2022-09-19T20:49:02.364Z,100993.66
2022-09-19T20:51:29.108Z,101008.03
2022-09-19T20:53:56.994Z,100991.31
2022-09-19T20:56:28.253Z,100997.88
2022-09-19T20:58:59.998Z,100988.66
2022-09-19T21:01:32.337Z,100994.28
2022-09-19T21:03:58.940Z,101000.88
2022-09-19T21:06:25.825Z,101001.22
2022-09-19T21:08:53.867Z,101009.97
2022-09-19T21:11:24.666Z,101012.28
2022-09-19T21:13:54.240Z,101008.03
2022-09-19T21:16:26.149Z,101010.78
2022-09-19T21:18:54.693Z,101013.03
2022-09-19T21:21:24.874Z,101017.00
2022-09-19T21:23:52.752Z,101016.63
2022-09-19T21:26:22.340Z,101014.56
2022-09-19T21:28:51.701Z,101014.09
2022-09-19T21:31:20.861Z,101015.16
2022-09-19T21:33:47.823Z,101013.28
2022-09-19T21:36:14.385Z,101002.06
2022-09-19T21:38:40.945Z,101001.03
2022-09-19T21:41:09.595Z,101003.66
2022-09-19T21:43:41.802Z,101000.47
2022-09-19T21:46:15.147Z,101000.03
2022-09-19T21:48:44.690Z,101001.00
2022-09-19T21:51:16.573Z,101006.28
2022-09-19T21:53:50.524Z,101014.00
2022-09-19T21:56:17.776Z,101012.44
2022-09-19T21:58:44.307Z,101012.81
2022-09-19T22:01:18.999Z,101016.09
2022-09-19T22:03:45.602Z,101020.06
2022-09-19T22:06:12.865Z,101014.41
2022-09-19T22:08:43.341Z,101015.69
2022-09-19T22:11:11.936Z,101022.28
2022-09-19T22:13:41.089Z,101018.88
2022-09-19T22:16:09.888Z,101021.78
2022-09-19T22:18:36.711Z,101019.31
2022-09-19T22:21:04.865Z,101018.72
2022-09-19T22:23:34.519Z,101019.44
2022-09-19T22:26:05.624Z,101030.16
2022-09-19T22:28:34.847Z,101034.72
2022-09-19T22:31:14.702Z,101021.06
2022-09-19T22:33:42.977Z,101025.19
2022-09-19T22:36:12.597Z,101029.31
2022-09-19T22:38:39.540Z,101018.91
2022-09-19T22:41:08.829Z,101019.41
2022-09-19T22:43:35.839Z,101021.06
2022-09-19T22:46:07.942Z,101016.25
2022-09-19T22:48:35.778Z,101014.53
2022-09-19T22:51:02.402Z,101009.69
2022-09-19T22:53:33.991Z,101021.63
2022-09-19T22:56:02.494Z,101019.25
2022-09-19T22:58:34.841Z,101024.56
2022-09-19T23:01:24.362Z,101032.66
2022-09-19T23:03:56.214Z,101026.66
2022-09-19T23:06:25.184Z,101025.25
2022-09-19T23:08:55.079Z,101021.88
2022-09-19T23:11:21.605Z,101019.75
2022-09-19T23:13:48.136Z,101028.50
2022-09-19T23:16:23.769Z,101029.28
2022-09-19T23:18:56.030Z,101021.16
2022-09-19T23:21:25.685Z,101023.09
2022-09-19T23:23:52.564Z,101024.72
2022-09-19T23:26:19.296Z,101025.72
2022-09-19T23:28:46.153Z,101026.94
2022-09-19T23:31:12.982Z,101025.88
2022-09-19T23:33:39.852Z,101027.22
2022-09-19T23:36:10.226Z,101025.44
2022-09-19T23:38:36.680Z,101024.50
2022-09-19T23:41:06.786Z,101027.16
2022-09-19T23:43:34.501Z,101031.09
2022-09-19T23:46:01.994Z,101031.28
2022-09-19T23:48:30.008Z,101027.47
2022-09-19T23:50:57.445Z,101031.69
2022-09-19T23:53:25.508Z,101036.59
2022-09-19T23:55:52.546Z,101036.16
2022-09-19T23:58:20.208Z,101033.66
